Miami, West Virginia
Current Conditions -  °F | °C
As of 12:42 PM on Tuesday 21 Oct 2014 (Local Time) from KCRW Reporting Station
Overcast Overcast  
Wind Chill: 55°   Ceiling: 1800
Heat Index: 55°   Visibility: 7mi
Dew Point: 48°   Wind: 5mph
Humidity: 77%   Direction: NA
Pressure: 29.94"   Gusts: NA
Location:  38.15°N, 81.45°W
Report Text: KCRW 211642Z VRB04KT 7SM SCT009 BKN018 OVC070 13/09 A2994 RMK AO2 T01280089
Loading
Personal Weather Stations






























Interactive Weather Map New forecast layout! Learn more

10-Day Weather Forecast

Advertisements
Track Severe Weather on mobile